Airfield :
LOGIN :

Register | Disclaimer

   EN    FR    IT 

 










Legend :    VFR   Marginal VFR   IFR   Intensive IFR   Very Intensive IFR
Visi :
Ceiling :
>= 8 km
>= 3000ft
5 to 8 km
1000 to 3000 ft
1500m to 5 km
500 to 1000 ft
800 to 1500m
200 to 500 ft
< 800m
< 200 ft
Symbols :   Thunderstorms  Fog  Heavy snow  Heavy precipitations  Wind > 20 kt
SIGMETs :     Misc.  Thunderstorms  Icing  Turbulence  Mountain Waves  Volcanic Ashes






- Airport Elevation : 479 ft
- IATA code : DOL


LFRG - Deauville

CURRENT METAR :
  • 180430Z AUTO 08003KT 0400 R30/0550U FG OVC006 00/00 Q1037

EXPIRED METARs :
  • 180400Z AUTO 07002KT 0450 0400 R30/0600U FZFG BKN006 M00/M00 Q1038
  • 180330Z AUTO 08002KT 0550 0400 R30/0800N FG FEW009 01/01 Q1038
  • 180300Z AUTO 13002KT 0500 0350 R30/0750N FG SCT008 01/01 Q1038
  • 180230Z AUTO VRB01KT 0900 0650 R30/1100D FG NSC 02/02 Q1038
  • 180200Z AUTO 13004KT 2400 1300 R30/P2000 BR NSC 01/01 Q1038

Expired Forecast.
ATIS : +33 2 31 65 65 36



MET'MAP, your aeronautical weather chart ! - Copyright ORBIFLY December 2007 - Disclaimer

ORBIFLY MET'MAP TEAM :

Programming & Development : Alexandra Zaïnal
Concept & original design : Baudouin d'Aumeries
Assistance for programming : Marc-Olivier Méhu
Technical & hardware support : Manuel Goepfert

Contact : metmap@orbifly.com




SOURCES & CREDITS :

   NOAA